createdAt,value
2018-06-10T00:01:26.254Z,23.00
2018-06-10T00:03:54.607Z,22.90
2018-06-10T00:06:22.977Z,22.90
2018-06-10T00:08:51.362Z,22.90
2018-06-10T00:11:19.725Z,22.90
2018-06-10T00:13:48.056Z,23.00
2018-06-10T00:16:16.410Z,23.00
2018-06-10T00:18:44.719Z,23.00
2018-06-10T00:21:19.753Z,23.00
2018-06-10T00:23:48.251Z,23.00
2018-06-10T00:26:16.661Z,23.10
2018-06-10T00:28:50.312Z,23.10
2018-06-10T00:31:18.653Z,23.10
2018-06-10T00:33:47.008Z,23.10
2018-06-10T00:36:15.337Z,23.00
2018-06-10T00:38:43.674Z,23.00
2018-06-10T00:41:12.036Z,23.10
2018-06-10T00:43:40.354Z,23.00
2018-06-10T00:46:08.791Z,23.00
2018-06-10T00:48:37.123Z,23.00
2018-06-10T00:51:05.492Z,23.00
2018-06-10T00:56:12.151Z,23.00
2018-06-10T00:58:40.524Z,22.90
2018-06-10T01:01:09.082Z,22.70
2018-06-10T01:03:37.400Z,22.70
2018-06-10T01:06:05.752Z,22.70
2018-06-10T01:08:34.100Z,22.70
2018-06-10T01:11:03.256Z,22.70
2018-06-10T01:13:31.817Z,22.60
2018-06-10T01:16:00.275Z,22.60
2018-06-10T01:18:28.603Z,22.60
2018-06-10T01:20:57.382Z,22.50
2018-06-10T01:23:26.954Z,22.50
2018-06-10T01:25:55.332Z,22.40
2018-06-10T01:28:23.747Z,22.30
2018-06-10T01:30:52.071Z,22.40
2018-06-10T01:33:20.463Z,22.40
2018-06-10T01:35:50.639Z,22.40
2018-06-10T01:38:19.052Z,22.40
2018-06-10T01:43:17.115Z,22.40
2018-06-10T01:45:45.755Z,22.40
2018-06-10T01:48:14.115Z,22.40
2018-06-10T01:50:42.431Z,22.40
2018-06-10T01:53:10.810Z,22.30
2018-06-10T01:55:39.143Z,22.30
2018-06-10T01:58:07.551Z,22.20
2018-06-10T02:00:35.874Z,22.10
2018-06-10T02:03:04.281Z,22.10
2018-06-10T02:05:33.617Z,22.00
2018-06-10T02:08:02.796Z,22.00
2018-06-10T02:10:32.023Z,22.00
2018-06-10T02:13:00.759Z,21.80
2018-06-10T02:15:29.089Z,21.70
2018-06-10T02:17:58.196Z,21.70
2018-06-10T02:20:26.522Z,21.70
2018-06-10T02:22:56.062Z,21.70
2018-06-10T02:25:25.300Z,21.70
2018-06-10T02:27:53.727Z,21.60
2018-06-10T02:30:28.677Z,21.60
2018-06-10T02:32:57.789Z,21.70
2018-06-10T02:35:26.308Z,21.70
2018-06-10T03:55:26.093Z,21.40
2018-06-10T03:57:54.469Z,21.50
2018-06-10T04:05:19.231Z,21.40
2018-06-10T04:07:47.619Z,21.40
2018-06-10T04:10:15.993Z,21.40
2018-06-10T04:12:44.476Z,21.30
2018-06-10T04:15:12.862Z,21.40
2018-06-10T04:17:41.301Z,21.50
2018-06-10T04:20:09.710Z,21.60
2018-06-10T04:22:38.174Z,21.60
2018-06-10T04:25:06.545Z,21.70
2018-06-10T04:27:41.522Z,21.70
2018-06-10T04:30:09.920Z,21.70
2018-06-10T04:32:38.319Z,21.60
2018-06-10T04:35:06.699Z,21.60
2018-06-10T04:37:35.080Z,21.70
2018-06-10T04:40:03.481Z,21.70
2018-06-10T04:42:31.873Z,21.70
2018-06-10T04:45:01.030Z,21.70
2018-06-10T04:47:29.456Z,21.80
2018-06-10T04:49:58.120Z,21.80
2018-06-10T04:52:26.580Z,21.90
2018-06-10T04:54:54.964Z,22.00
2018-06-10T04:57:23.335Z,22.10
2018-06-10T04:59:51.731Z,22.20
2018-06-10T05:02:20.213Z,22.30
2018-06-10T05:04:48.622Z,22.50
2018-06-10T05:07:17.021Z,22.70
2018-06-10T05:09:45.456Z,22.80
2018-06-10T05:12:13.846Z,22.90
2018-06-10T05:14:42.240Z,23.10
2018-06-10T05:17:10.683Z,23.20
2018-06-10T05:19:39.185Z,23.10
2018-06-10T05:22:07.571Z,23.10
2018-06-10T05:24:35.943Z,23.20
2018-06-10T05:27:04.339Z,23.20
2018-06-10T05:29:32.786Z,23.30
2018-06-10T05:32:01.142Z,23.20
2018-06-10T05:34:29.548Z,23.20
2018-06-10T05:39:32.461Z,23.30
2018-06-10T05:42:00.862Z,23.30
2018-06-10T05:44:29.266Z,23.20
2018-06-10T05:46:57.680Z,23.20
2018-06-10T05:49:26.040Z,23.30
2018-06-10T05:51:54.438Z,23.40
2018-06-10T05:54:22.797Z,23.60
2018-06-10T05:56:51.244Z,23.70
2018-06-10T05:59:19.669Z,23.70
2018-06-10T06:01:48.092Z,23.60
2018-06-10T06:04:16.481Z,23.60
2018-06-10T06:06:44.896Z,23.70
2018-06-10T06:09:13.321Z,23.80
2018-06-10T06:11:41.732Z,23.90
2018-06-10T06:14:10.532Z,24.00
2018-06-10T06:16:38.931Z,24.10
2018-06-10T06:19:07.721Z,24.30
2018-06-10T06:21:36.076Z,24.40
2018-06-10T06:24:04.444Z,24.50
2018-06-10T06:26:32.838Z,24.70
2018-06-10T06:29:01.252Z,24.70
2018-06-10T06:31:29.617Z,24.80
2018-06-10T06:33:58.074Z,24.90
2018-06-10T06:36:26.466Z,25.00
2018-06-10T06:38:54.854Z,25.10
2018-06-10T06:41:23.222Z,25.10
2018-06-10T06:43:51.591Z,25.10
2018-06-10T06:46:20.050Z,25.00
2018-06-10T06:48:48.422Z,25.10
2018-06-10T06:51:16.832Z,25.20
2018-06-10T06:53:45.237Z,25.30
2018-06-10T06:56:13.655Z,25.40
2018-06-10T06:58:42.074Z,25.60
2018-06-10T07:01:10.445Z,25.70
2018-06-10T07:03:38.818Z,25.80
2018-06-10T07:06:07.194Z,25.80
2018-06-10T07:08:35.547Z,25.70
2018-06-10T07:11:03.949Z,25.80
2018-06-10T07:13:32.318Z,25.90
2018-06-10T07:16:00.725Z,26.00
2018-06-10T07:18:29.125Z,26.10
2018-06-10T07:20:57.510Z,26.20
2018-06-10T07:23:26.052Z,26.30
2018-06-10T07:25:54.536Z,26.30
2018-06-10T07:28:22.996Z,26.20
2018-06-10T07:30:51.443Z,26.20
2018-06-10T07:33:19.864Z,26.30
2018-06-10T07:35:48.262Z,26.30
2018-06-10T07:38:16.668Z,26.30
2018-06-10T07:40:45.044Z,26.40
2018-06-10T07:43:13.486Z,26.40
2018-06-10T07:45:41.819Z,26.60
2018-06-10T07:48:10.195Z,26.80
2018-06-10T07:50:38.558Z,26.90
2018-06-10T07:53:07.159Z,27.20
2018-06-10T07:55:35.633Z,27.30
2018-06-10T07:58:04.238Z,27.30
2018-06-10T08:00:32.595Z,27.40
2018-06-10T08:03:01.966Z,27.70
2018-06-10T08:05:30.489Z,27.60
2018-06-10T08:07:58.831Z,27.80
2018-06-10T08:10:27.184Z,28.00
2018-06-10T08:12:55.541Z,28.20
2018-06-10T08:15:23.880Z,28.30
2018-06-10T08:17:52.307Z,28.60
2018-06-10T08:20:20.711Z,28.60
2018-06-10T08:22:49.119Z,28.70
2018-06-10T08:25:17.555Z,28.90
2018-06-10T08:27:45.916Z,29.10
2018-06-10T08:30:14.418Z,29.30
2018-06-10T08:32:42.983Z,29.50
2018-06-10T08:35:11.334Z,29.40
2018-06-10T08:37:39.702Z,29.60
2018-06-10T08:40:08.076Z,29.50
2018-06-10T08:42:36.449Z,29.70
2018-06-10T08:45:05.285Z,29.80
2018-06-10T08:47:33.648Z,29.90
2018-06-10T08:50:02.033Z,29.80
2018-06-10T08:52:30.452Z,29.90
2018-06-10T08:54:58.856Z,29.90
2018-06-10T08:57:27.218Z,29.90
2018-06-10T08:59:55.608Z,29.90
2018-06-10T09:02:24.022Z,29.90
2018-06-10T09:04:52.465Z,30.00
2018-06-10T09:07:22.337Z,30.30
2018-06-10T09:09:50.751Z,29.80
2018-06-10T09:12:19.240Z,29.70
2018-06-10T09:14:47.813Z,29.60
2018-06-10T09:17:16.237Z,29.40
2018-06-10T09:19:44.705Z,29.50
2018-06-10T09:22:13.284Z,29.70
2018-06-10T09:24:41.859Z,29.60
2018-06-10T09:27:10.337Z,29.70
2018-06-10T09:29:38.760Z,29.60
2018-06-10T09:32:07.197Z,29.90
2018-06-10T09:34:35.696Z,30.30
2018-06-10T09:37:04.161Z,30.60
2018-06-10T09:39:32.564Z,31.20
2018-06-10T09:42:00.997Z,31.30
2018-06-10T09:44:29.499Z,31.50
2018-06-10T09:46:57.948Z,31.70
2018-06-10T09:49:26.402Z,32.10
2018-06-10T09:51:54.800Z,31.90
2018-06-10T09:54:23.246Z,31.80
2018-06-10T09:56:51.718Z,32.00
2018-06-10T09:59:20.263Z,32.10
2018-06-10T10:01:48.623Z,32.00
2018-06-10T10:04:17.035Z,32.20
2018-06-10T10:06:45.378Z,32.00
2018-06-10T10:09:13.805Z,31.90
2018-06-10T10:11:42.160Z,31.80
2018-06-10T10:14:10.519Z,31.70
2018-06-10T10:16:39.147Z,31.80
2018-06-10T10:19:07.577Z,31.90
2018-06-10T10:21:35.970Z,32.00
2018-06-10T10:24:04.354Z,31.90
2018-06-10T10:26:32.763Z,32.30
2018-06-10T10:29:01.112Z,32.50
2018-06-10T10:31:29.526Z,32.30
2018-06-10T10:33:57.926Z,32.40
2018-06-10T10:36:26.328Z,32.30
2018-06-10T10:38:54.713Z,32.50
2018-06-10T10:41:23.234Z,32.60
2018-06-10T10:43:51.698Z,32.80
2018-06-10T10:48:48.410Z,33.00
2018-06-10T10:51:16.877Z,32.90
2018-06-10T10:53:45.335Z,32.80
2018-06-10T10:58:42.139Z,32.70
2018-06-10T11:01:10.566Z,32.50
2018-06-10T11:03:39.033Z,32.40
2018-06-10T11:06:07.666Z,31.70
2018-06-10T11:08:36.080Z,31.40
2018-06-10T11:11:04.595Z,31.40
2018-06-10T11:13:33.095Z,31.60
2018-06-10T11:16:01.574Z,31.90
2018-06-10T11:18:30.040Z,32.30
2018-06-10T11:20:58.472Z,32.60
2018-06-10T11:23:26.880Z,33.10
2018-06-10T11:25:55.308Z,33.20
2018-06-10T11:30:58.328Z,32.40
2018-06-10T11:33:26.836Z,31.90
2018-06-10T11:35:55.292Z,31.70
2018-06-10T11:38:23.715Z,31.60
2018-06-10T11:40:52.282Z,31.60
2018-06-10T11:43:20.717Z,31.20
2018-06-10T11:45:49.222Z,30.80
2018-06-10T11:48:17.695Z,30.90
2018-06-10T11:50:46.069Z,31.10
2018-06-10T11:53:14.471Z,31.70
2018-06-10T11:55:42.847Z,31.60
2018-06-10T11:58:11.304Z,31.20
2018-06-10T12:00:39.743Z,30.90
2018-06-10T12:03:08.175Z,30.80
2018-06-10T12:05:36.688Z,30.50
2018-06-10T12:08:05.200Z,30.40
2018-06-10T12:10:33.762Z,30.10
2018-06-10T12:13:02.338Z,30.00
2018-06-10T12:15:30.756Z,29.60
2018-06-10T12:17:59.267Z,29.20
2018-06-10T12:20:27.695Z,28.70
2018-06-10T12:22:56.120Z,28.50
2018-06-10T12:25:24.565Z,28.20
2018-06-10T12:27:53.063Z,27.80
2018-06-10T12:30:21.569Z,27.10
2018-06-10T12:32:50.116Z,26.30
2018-06-10T12:35:18.683Z,25.90
2018-06-10T12:37:47.097Z,25.40
2018-06-10T12:40:15.583Z,25.30
2018-06-10T12:42:43.951Z,25.10
2018-06-10T12:45:12.573Z,24.80
2018-06-10T12:47:41.577Z,24.70
2018-06-10T12:50:10.258Z,24.70
2018-06-10T12:52:38.880Z,24.50
2018-06-10T12:55:07.503Z,24.40
2018-06-10T12:57:36.142Z,24.30
2018-06-10T13:00:04.805Z,24.40
2018-06-10T13:02:33.660Z,24.50
2018-06-10T13:05:02.239Z,24.40
2018-06-10T13:07:30.634Z,24.50
2018-06-10T13:09:59.056Z,24.70
2018-06-10T13:12:27.487Z,24.90
2018-06-10T13:14:56.095Z,25.00
2018-06-10T13:17:27.853Z,25.00
2018-06-10T13:19:56.251Z,25.10
2018-06-10T13:22:24.699Z,25.10
2018-06-10T13:24:53.105Z,25.10
2018-06-10T13:27:21.518Z,25.10
2018-06-10T13:29:50.044Z,25.30
2018-06-10T13:32:18.449Z,25.40
2018-06-10T13:34:46.936Z,25.50
2018-06-10T13:37:15.361Z,25.80
2018-06-10T13:39:43.761Z,25.90
2018-06-10T13:42:12.172Z,26.10
2018-06-10T13:44:40.651Z,26.10
2018-06-10T13:47:09.229Z,26.10
2018-06-10T13:49:37.666Z,26.10
2018-06-10T13:52:06.330Z,26.20
2018-06-10T13:54:34.753Z,26.40
2018-06-10T13:57:03.178Z,26.60
2018-06-10T13:59:31.605Z,26.60
2018-06-10T14:02:00.116Z,26.70
2018-06-10T14:04:28.565Z,26.70
2018-06-10T14:06:57.142Z,26.80
2018-06-10T14:09:25.691Z,26.80
2018-06-10T14:11:54.136Z,26.70
2018-06-10T14:14:22.744Z,26.60
2018-06-10T14:16:51.264Z,26.50
2018-06-10T14:19:19.717Z,26.50
2018-06-10T14:21:48.126Z,26.40
2018-06-10T14:24:16.642Z,26.40
2018-06-10T14:26:45.809Z,26.40
2018-06-10T14:34:10.598Z,26.20
2018-06-10T14:36:39.062Z,26.20
2018-06-10T14:39:08.808Z,26.20
2018-06-10T14:41:37.205Z,25.90
2018-06-10T14:44:05.758Z,25.90
2018-06-10T14:46:34.256Z,25.80
2018-06-10T14:49:02.726Z,25.60
2018-06-10T14:51:31.241Z,25.40
2018-06-10T14:56:27.835Z,24.60
2018-06-10T14:58:56.288Z,24.20
2018-06-10T15:01:24.760Z,24.10
2018-06-10T15:06:21.310Z,23.80
2018-06-10T15:08:49.743Z,23.90
2018-06-10T15:11:18.151Z,23.90
2018-06-10T15:13:50.197Z,23.90
2018-06-10T15:16:18.623Z,24.00
2018-06-10T15:18:47.099Z,24.10
2018-06-10T15:21:15.502Z,24.10
2018-06-10T15:23:43.935Z,24.00
2018-06-10T15:26:12.368Z,23.90
2018-06-10T15:28:40.771Z,23.90
2018-06-10T15:31:09.168Z,23.90
2018-06-10T15:33:37.579Z,23.90
2018-06-10T15:36:06.104Z,23.70
2018-06-10T15:38:34.621Z,23.70
2018-06-10T15:41:03.135Z,23.90
2018-06-10T15:45:59.818Z,24.10
2018-06-10T15:48:28.587Z,24.10
2018-06-10T15:50:57.084Z,24.20
2018-06-10T15:53:25.500Z,24.30
2018-06-10T15:55:53.967Z,24.30
2018-06-10T15:58:22.384Z,24.50
2018-06-10T16:00:50.862Z,24.70
2018-06-10T16:03:19.284Z,24.80
2018-06-10T16:05:47.710Z,24.90
2018-06-10T16:08:16.200Z,24.80
2018-06-10T16:10:44.694Z,25.00
2018-06-10T16:13:13.091Z,25.00
2018-06-10T16:15:41.478Z,25.20
2018-06-10T16:18:09.986Z,25.40
2018-06-10T16:20:38.381Z,25.50
2018-06-10T16:23:06.962Z,25.50
2018-06-10T16:25:35.365Z,25.50
2018-06-10T16:28:03.769Z,25.60
2018-06-10T16:30:32.223Z,25.60
2018-06-10T16:33:00.650Z,25.50
2018-06-10T16:35:29.033Z,25.50
2018-06-10T16:37:57.462Z,25.50
2018-06-10T16:40:25.918Z,25.50
2018-06-10T16:42:54.289Z,25.40
2018-06-10T16:45:22.700Z,25.40
2018-06-10T16:47:51.122Z,25.30
2018-06-10T16:50:19.516Z,25.30
2018-06-10T16:52:47.974Z,25.20
2018-06-10T16:55:16.932Z,25.10
2018-06-10T16:57:45.368Z,25.10
2018-06-10T17:00:13.775Z,25.10
2018-06-10T17:02:42.277Z,25.00
2018-06-10T17:05:10.675Z,25.00
2018-06-10T17:07:39.094Z,25.00
2018-06-10T17:10:07.491Z,25.00
2018-06-10T17:12:35.958Z,24.90
2018-06-10T17:15:04.384Z,24.80
2018-06-10T17:17:32.749Z,24.90
2018-06-10T17:20:01.158Z,24.90
2018-06-10T17:22:29.567Z,24.80
2018-06-10T17:27:26.152Z,24.80
2018-06-10T17:29:54.597Z,24.90
2018-06-10T17:32:22.995Z,24.90
2018-06-10T17:34:51.385Z,25.00
2018-06-10T17:37:19.837Z,24.90
2018-06-10T17:39:48.297Z,24.80
2018-06-10T17:42:16.766Z,24.70
2018-06-10T17:44:45.156Z,24.70
2018-06-10T17:47:13.532Z,24.60
2018-06-10T17:49:41.970Z,24.30
2018-06-10T17:52:10.336Z,24.30
2018-06-10T17:54:38.776Z,24.10
2018-06-10T17:57:07.141Z,24.00
2018-06-10T17:59:35.556Z,23.90
2018-06-10T18:02:04.064Z,23.90
2018-06-10T18:04:32.420Z,23.80
2018-06-10T18:07:00.780Z,23.70
2018-06-10T18:09:29.182Z,23.70
2018-06-10T18:11:57.564Z,23.60
2018-06-10T18:14:26.005Z,23.50
2018-06-10T18:16:54.440Z,23.40
2018-06-10T18:19:22.912Z,23.30
2018-06-10T18:21:51.364Z,23.30
2018-06-10T18:24:19.776Z,23.30
2018-06-10T18:26:48.172Z,23.30
2018-06-10T18:29:16.629Z,23.20
2018-06-10T18:31:45.010Z,23.10
2018-06-10T18:34:13.411Z,23.10
2018-06-10T18:36:41.804Z,23.10
2018-06-10T18:39:10.312Z,23.10
2018-06-10T18:41:38.727Z,23.10
2018-06-10T18:44:08.098Z,23.00
2018-06-10T18:46:36.459Z,23.00
2018-06-10T18:49:04.846Z,22.90
2018-06-10T18:51:33.295Z,22.90
2018-06-10T18:54:01.738Z,22.70
2018-06-10T18:56:30.176Z,22.60
2018-06-10T18:58:58.604Z,22.80
2018-06-10T19:01:26.994Z,22.80
2018-06-10T19:03:55.377Z,22.80
2018-06-10T19:06:23.850Z,22.90
2018-06-10T19:08:52.232Z,23.00
2018-06-10T19:11:20.611Z,23.00
2018-06-10T19:13:49.634Z,22.90
2018-06-10T19:16:18.053Z,22.90
2018-06-10T19:18:46.517Z,22.70
2018-06-10T19:21:14.987Z,22.60
2018-06-10T19:23:43.380Z,22.50
2018-06-10T19:26:11.835Z,22.50
2018-06-10T19:28:40.284Z,22.30
2018-06-10T19:31:08.683Z,22.30
2018-06-10T19:33:37.068Z,22.30
2018-06-10T19:36:05.648Z,22.30
2018-06-10T19:38:34.024Z,22.40
2018-06-10T19:41:02.475Z,22.40
2018-06-10T19:43:30.923Z,22.30
2018-06-10T19:45:59.409Z,22.30
2018-06-10T19:48:27.756Z,22.30
2018-06-10T19:50:56.839Z,22.40
2018-06-10T19:53:39.851Z,22.40
2018-06-10T19:56:08.276Z,22.40
2018-06-10T19:58:36.725Z,22.20
2018-06-10T20:01:05.126Z,22.20
2018-06-10T20:03:33.735Z,22.20
2018-06-10T20:06:02.165Z,22.30
2018-06-10T20:08:30.645Z,22.30
2018-06-10T20:10:59.937Z,22.10
2018-06-10T20:13:28.336Z,22.10
2018-06-10T20:15:56.747Z,22.10
2018-06-10T20:18:25.168Z,22.10
2018-06-10T20:20:53.593Z,22.00
2018-06-10T20:23:22.039Z,22.00
2018-06-10T20:25:50.549Z,22.00
2018-06-10T20:28:25.285Z,22.00
2018-06-10T20:30:53.907Z,21.90
2018-06-10T20:33:22.413Z,21.80
2018-06-10T20:35:50.821Z,21.80
2018-06-10T20:38:19.254Z,21.80
2018-06-10T20:40:47.673Z,21.70
2018-06-10T20:43:16.081Z,21.70
2018-06-10T20:45:44.467Z,21.70
2018-06-10T20:48:12.855Z,21.70
2018-06-10T20:50:41.271Z,21.60
2018-06-10T20:53:09.648Z,21.60
2018-06-10T20:58:06.177Z,21.60
2018-06-10T21:00:34.614Z,21.50
2018-06-10T21:03:03.045Z,21.50
2018-06-10T21:05:31.448Z,21.40
2018-06-10T21:07:59.920Z,21.40
2018-06-10T21:10:28.353Z,21.40
2018-06-10T21:12:56.768Z,21.30
2018-06-10T21:15:25.194Z,21.30
2018-06-10T21:17:53.548Z,21.40
2018-06-10T21:20:22.062Z,21.40
2018-06-10T21:22:50.465Z,21.30
2018-06-10T21:25:18.974Z,21.30
2018-06-10T21:27:47.385Z,21.20
2018-06-10T21:30:15.858Z,21.20
2018-06-10T21:32:44.244Z,21.10
2018-06-10T21:35:12.650Z,21.00
2018-06-10T21:37:41.068Z,21.00
2018-06-10T21:40:09.529Z,21.00
2018-06-10T21:42:37.977Z,21.00
2018-06-10T21:45:06.437Z,21.00
2018-06-10T21:47:34.900Z,20.90
2018-06-10T21:50:03.349Z,21.00
2018-06-10T21:52:31.745Z,21.00
2018-06-10T21:57:35.760Z,21.00
2018-06-10T22:00:05.193Z,20.90
2018-06-10T22:02:33.628Z,21.00
2018-06-10T22:05:02.054Z,21.10
2018-06-10T22:07:30.524Z,21.10
2018-06-10T22:09:58.930Z,21.10
2018-06-10T22:12:27.351Z,21.00
2018-06-10T22:14:55.790Z,21.10
2018-06-10T22:17:24.231Z,21.00
2018-06-10T22:19:53.204Z,20.90
2018-06-10T22:22:21.609Z,20.90
2018-06-10T22:24:50.103Z,20.90
2018-06-10T22:27:18.992Z,20.90
2018-06-10T22:29:47.414Z,20.90
2018-06-10T22:32:15.891Z,20.80
2018-06-10T22:34:44.299Z,20.90
2018-06-10T22:37:12.705Z,20.90
2018-06-10T22:39:41.070Z,20.90
2018-06-10T22:42:09.481Z,20.80
2018-06-10T22:44:37.871Z,20.80
2018-06-10T22:47:06.284Z,20.70
2018-06-10T22:49:34.659Z,20.80
2018-06-10T22:52:03.066Z,20.70
2018-06-10T22:54:42.296Z,20.70
2018-06-10T22:57:11.534Z,20.80
2018-06-10T22:59:39.956Z,20.60
2018-06-10T23:02:09.273Z,20.70
2018-06-10T23:04:37.724Z,20.70
2018-06-10T23:07:06.182Z,20.70
2018-06-10T23:09:34.607Z,20.50
2018-06-10T23:12:09.755Z,20.40
2018-06-10T23:14:38.149Z,20.40
2018-06-10T23:19:35.249Z,20.30
2018-06-10T23:22:03.622Z,20.30
2018-06-10T23:24:32.026Z,20.20
2018-06-10T23:29:28.566Z,20.30
2018-06-10T23:31:56.951Z,20.20
2018-06-10T23:36:53.478Z,20.20
2018-06-10T23:39:21.857Z,20.20
2018-06-10T23:41:50.260Z,20.10
2018-06-10T23:44:18.668Z,20.00
2018-06-10T23:46:47.052Z,20.00
2018-06-10T23:49:15.878Z,20.10
2018-06-10T23:51:45.986Z,20.10
2018-06-10T23:54:14.412Z,19.90
2018-06-10T23:56:42.795Z,19.90
2018-06-10T23:59:11.198Z,19.80
